Latest Weather Observations for Norfolk Island

IDN60801

Issued at 2:12 am EDT Saturday 29 February 2020 (issued every 10 minutes, with the page automatically refreshed every 10 minutes)

About weather observations | Map of weather stations | Latest weather observations for NSW | Other Formats
Station Details ID: 200288 Name: NORFOLK ISLAND AERO Lat: -29.04 Lon: 167.94 Height: 111.73 m
Data from the previous 72 hours. | See also: Recent months at Norfolk Island

Observations are collected in the New South Wales time zone (Eastern Standard Time) which includes daylight savings in the summer period. Therefore 'Rain since 9am' totals and other values are based on the New South Wales time zone, which may differ from local time.

Date/Time
EDT
Temp
°C
App
Temp
°C
Dew
Point
°C
Rel
Hum
%
Delta-T
°C
Wind Press
QNH
hPa
Press
MSL
hPa
Rain since
9am
mm
Dir  Spd
km/h
Gust
km/h
Spd
kts
Gust
kts
29/02:00am 23.1 23.1 20.2 84 1.9 NE 20 28 11 15 1013.2 1012.7 0.0
29/01:30am 23.3 23.3 20.2 83 2.0 NE 20 32 11 17 1013.5 1013.0 0.0
29/01:00am 23.3 22.9 20.1 82 2.1 NE 22 30 12 16 1013.8 1013.2 0.0
29/12:30am 23.3 22.0 19.9 81 2.2 NE 26 35 14 19 1014.0 1013.4 0.0
29/12:00am 23.3 23.3 20.2 83 2.0 NE 20 32 11 17 1014.0 1013.4 0.0
 
Date/Time
EDT
Temp
°C
App
Temp
°C
Dew
Point
°C
Rel
Hum
%
Delta-T
°C
Wind Press
QNH
hPa
Press
MSL
hPa
Rain since
9am
mm
Dir  Spd
km/h
Gust
km/h
Spd
kts
Gust
kts
28/11:46pm 23.3 23.5 20.2 83 2.0 NE 19 30 10 16 1014.1 1013.6 0.0
28/11:30pm 23.3 23.5 20.2 83 2.0 NE 19 28 10 15 1014.2 1013.7 0.0
28/11:02pm 23.2 23.8 20.2 83 1.9 NE 17 28 9 15 1014.3 1013.8 0.0
28/11:00pm 23.2 23.4 20.2 83 1.9 NE 19 32 10 17 1014.3 1013.8 0.0
28/10:48pm 23.1 23.2 19.9 82 2.1 NE 19 28 10 15 1014.2 1013.7 0.0
28/10:30pm 23.2 23.2 20.2 83 1.9 NE 20 32 11 17 1014.1 1013.6 0.0
28/10:12pm 23.2 23.2 20.2 83 1.9 NE 20 30 11 16 1014.2 1013.7 0.0
28/10:00pm 23.2 22.8 20.2 83 1.9 NE 22 32 12 17 1014.1 1013.6 0.0
28/09:30pm 23.4 22.7 20.2 82 2.1 NE 24 30 13 16 1014.2 1013.7 0.0
28/09:00pm 23.3 22.9 20.1 82 2.1 NE 22 30 12 16 1014.4 1013.9 0.0
28/08:30pm 23.3 23.5 20.1 82 2.1 NE 19 28 10 15 1014.2 1013.7 0.0
28/08:00pm 23.3 23.2 19.9 81 2.2 NE 20 28 11 15 1014.0 1013.4 0.0
28/07:30pm 23.3 23.2 19.9 81 2.2 NE 20 28 11 15 1013.7 1013.1 0.0
28/07:00pm 23.3 23.3 19.7 80 2.3 NE 19 26 10 14 1013.2 1012.7 0.0
28/06:30pm 23.4 24.0 19.5 79 2.5 NE 15 26 8 14 1013.0 1012.5 0.0
28/06:00pm 23.4 23.9 19.3 78 2.6 NE 15 19 8 10 1012.9 1012.4 0.0
28/05:30pm 23.8 23.4 19.3 76 2.9 NE 20 26 11 14 1012.6 1012.1 0.0
28/05:00pm 24.0 23.4 18.9 73 3.3 NNE 20 30 11 16 1012.3 1011.8 0.0
28/04:30pm 24.7 24.2 19.1 71 3.6 NE 20 28 11 15 1012.0 1011.5 0.0
28/04:00pm 25.1 25.2 19.2 70 3.8 NE 17 30 9 16 1012.0 1011.5 0.0
28/03:30pm 24.7 23.1 18.4 68 4.0 NE 24 33 13 18 1012.0 1011.5 0.0
28/03:00pm 25.2 24.2 18.9 68 4.0 NE 22 32 12 17 1012.3 1011.8 0.0
28/02:30pm 25.1 23.8 19.0 69 3.9 NE 24 35 13 19 1012.3 1011.8 0.0
28/02:00pm 24.2 23.2 18.8 72 3.4 NE 22 30 12 16 1012.5 1012.0 0.0
28/01:30pm 26.1 24.9 19.2 65 4.5 ENE 24 35 13 19 1012.9 1012.4 0.0
28/01:00pm 25.2 23.3 19.3 70 3.8 NE 28 33 15 18 1013.0 1012.5 0.0
28/12:30pm 25.1 23.3 18.8 68 4.0 NE 26 33 14 18 1013.3 1012.8 0.0
28/12:00pm 25.6 23.4 18.8 66 4.4 NE 28 33 15 18 1013.8 1013.2 0.0
28/11:30am 24.8 22.9 18.5 68 4.0 NE 26 33 14 18 1014.0 1013.4 0.0
28/11:00am 24.7 22.7 18.4 68 4.0 NE 26 32 14 17 1014.3 1013.8 0.0
28/10:30am 24.6 22.1 18.1 67 4.1 NE 28 35 15 19 1014.4 1013.9 0.0
28/10:00am 25.1 23.1 18.3 66 4.3 NE 26 33 14 18 1014.6 1014.1 0.0
28/09:30am 24.5 22.4 18.0 67 4.1 NE 26 33 14 18 1014.7 1014.2 0.0
28/09:00am 24.2 21.6 17.7 67 4.1 NE 28 33 15 18 1014.9 1014.4 0.0
28/08:30am 24.1 23.2 18.1 69 3.8 NE 20 32 11 17 1014.9 1014.4 0.0
28/08:00am 23.3 21.2 18.0 72 3.3 NE 26 32 14 17 1014.8 1014.3 0.0
28/07:30am 23.0 22.1 17.7 72 3.3 NE 19 28 10 15 1014.7 1014.2 0.0
28/07:00am 23.0 21.7 18.1 74 3.1 NE 22 28 12 15 1014.4 1013.9 0.0
28/06:30am 21.9 21.1 17.9 78 2.5 NE 19 26 10 14 1014.4 1013.9 0.0
28/06:00am 21.6 21.4 17.6 78 2.5 NE 15 20 8 11 1014.1 1013.6 0.0
28/05:30am 21.1 20.5 17.5 80 2.2 NE 17 22 9 12 1013.7 1013.1 0.0
28/05:00am 21.5 21.3 17.5 78 2.5 NE 15 22 8 12 1013.9 1013.3 0.0
28/04:30am 21.3 20.8 17.7 80 2.2 NE 17 24 9 13 1013.4 1012.9 0.0
28/04:00am 21.6 20.5 17.8 79 2.4 NE 20 26 11 14 1013.3 1012.8 0.0
28/03:30am 21.4 20.9 17.8 80 2.2 NE 17 24 9 13 1013.4 1012.9 0.0
28/03:00am 21.2 21.1 17.8 81 2.1 ENE 15 20 8 11 1013.5 1013.0 0.0
28/02:30am 21.1 21.3 17.7 81 2.1 NE 13 17 7 9 1013.4 1012.9 0.0
28/02:00am 21.3 21.3 18.1 82 2.0 ENE 15 20 8 11 1013.7 1013.1 0.0
28/01:30am 21.4 21.7 17.8 80 2.2 NE 13 17 7 9 1014.0 1013.4 0.0
28/01:00am 21.7 21.9 17.7 78 2.5 NE 13 15 7 8 1014.2 1013.7 0.0
28/12:30am 21.8 21.6 17.6 77 2.6 NE 15 20 8 11 1014.4 1013.9 0.0
28/12:00am 21.6 21.7 17.4 77 2.6 NE 13 17 7 9 1014.7 1014.2 0.0
 
Date/Time
EDT
Temp
°C
App
Temp
°C
Dew
Point
°C
Rel
Hum
%
Delta-T
°C
Wind Press
QNH
hPa
Press
MSL
hPa
Rain since
9am
mm
Dir  Spd
km/h
Gust
km/h
Spd
kts
Gust
kts
27/11:30pm 21.9 22.0 17.5 76 2.7 NE 13 19 7 10 1014.7 1014.2 0.0
27/11:00pm 21.9 22.1 17.7 77 2.6 NE 13 17 7 9 1015.2 1014.7 0.0
27/10:30pm 22.0 22.3 18.0 78 2.5 NE 13 17 7 9 1015.4 1014.9 0.0
27/10:00pm 22.1 22.5 18.1 78 2.5 NE 13 17 7 9 1015.6 1015.1 0.0
27/09:30pm 22.3 22.9 18.5 79 2.4 NE 13 19 7 10 1015.1 1014.6 0.0
27/09:00pm 22.3 22.9 18.5 79 2.4 NE 13 20 7 11 1015.1 1014.6 0.0
27/08:30pm 22.3 22.9 18.5 79 2.4 NE 13 19 7 10 1014.9 1014.4 0.0
27/08:00pm 22.5 23.1 18.7 79 2.4 NE 13 22 7 12 1014.6 1014.1 0.0
27/07:30pm 22.4 22.8 18.2 77 2.6 NE 13 19 7 10 1014.2 1013.7 0.0
27/07:00pm 22.5 22.7 17.6 74 3.0 NE 13 20 7 11 1013.8 1013.2 0.0
27/06:30pm 22.7 22.0 17.4 72 3.3 NE 17 22 9 12 1013.5 1013.0 0.0
27/06:00pm 23.1 22.7 18.0 73 3.2 NE 17 26 9 14 1013.3 1012.8 0.0
27/05:30pm 23.7 23.1 18.4 72 3.4 ENE 19 28 10 15 1013.2 1012.7 0.0
27/05:00pm 24.2 23.1 17.4 65 4.2 NE 19 28 10 15 1013.3 1012.8 0.0
27/04:30pm 24.6 24.1 17.8 66 4.3 NE 17 26 9 14 1013.3 1012.8 0.0
27/04:00pm 25.0 24.1 18.2 66 4.3 NE 20 26 11 14 1013.3 1012.8 0.0
27/03:30pm 24.9 22.7 17.9 65 4.4 NE 26 33 14 18 1013.5 1013.0 0.0
27/03:00pm 25.5 24.3 17.4 61 5.1 NE 20 30 11 16 1013.7 1013.1 0.0
27/02:30pm 24.9 23.6 18.1 66 4.3 NE 22 33 12 18 1013.9 1013.3 0.0
27/02:00pm 25.2 23.8 18.9 68 4.0 ENE 24 35 13 19 1014.2 1013.7 0.0
27/01:30pm 26.0 24.0 18.4 63 4.8 NE 26 32 14 17 1014.4 1013.9 0.0
27/01:00pm 26.0 24.6 18.9 65 4.6 ENE 24 32 13 17 1014.6 1014.1 0.0
27/12:30pm 25.7 24.3 18.9 66 4.4 ENE 24 33 13 18 1014.8 1014.3 0.0
27/12:00pm 25.4 24.2 19.3 69 3.9 NE 24 33 13 18 1015.0 1014.5 0.0
27/11:30am 25.9 24.6 19.1 66 4.4 NE 24 35 13 19 1015.5 1015.0 0.0
27/11:00am 24.5 24.1 19.3 73 3.3 NE 20 30 11 16 1015.6 1015.1 0.0
27/10:30am 24.5 23.1 18.9 71 3.6 ENE 24 35 13 19 1015.8 1015.3 0.0
27/10:00am 25.0 23.4 18.4 66 4.2 ENE 24 33 13 18 1015.5 1015.0 0.0
27/09:30am 25.1 24.2 19.0 69 3.9 NE 22 32 12 17 1015.4 1014.9 0.0
27/09:00am 23.8 22.6 18.4 72 3.4 NE 22 32 12 17 1015.6 1015.1 0.0
27/08:30am 23.7 22.1 18.4 72 3.4 ENE 24 33 13 18 1015.4 1014.9 0.0
27/08:00am 23.9 22.1 18.8 73 3.2 ENE 26 33 14 18 1015.4 1014.9 0.0
27/07:30am 23.8 22.4 18.7 73 3.2 ENE 24 32 13 17 1015.3 1014.8 0.0
27/07:00am 23.1 22.3 18.4 75 3.0 ENE 20 32 11 17 1015.0 1014.5 0.0
27/06:30am 22.6 21.9 18.6 78 2.5 ENE 20 30 11 16 1014.8 1014.3 0.0
27/06:00am 22.0 21.5 18.6 81 2.1 ENE 19 28 10 15 1014.7 1014.2 0.0
27/05:30am 21.8 21.2 18.4 81 2.1 ENE 19 28 10 15 1014.3 1013.8 0.0
27/05:00am 21.7 20.9 18.5 82 2.0 ENE 20 28 11 15 1014.0 1013.4 0.0
27/04:30am 21.6 21.4 18.4 82 2.0 ENE 17 24 9 13 1014.0 1013.4 0.0
27/04:00am 21.5 20.7 18.1 81 2.1 ENE 19 26 10 14 1013.9 1013.3 0.0
27/03:30am 21.7 20.9 18.1 80 2.3 ENE 19 28 10 15 1013.9 1013.3 0.0
27/03:00am 21.9 22.4 18.3 80 2.3 E 13 19 7 10 1014.0 1013.4 0.0
27/02:30am 21.8 21.4 18.0 79 2.4 ENE 17 26 9 14 1014.1 1013.6 0.0
27/02:00am 21.8 21.0 18.0 79 2.4 ENE 19 28 10 15 1014.3 1013.8 0.0
27/01:30am 21.8 21.0 18.0 79 2.4 ENE 19 28 10 15 1014.5 1014.0 0.0
27/01:00am 21.6 20.8 18.0 80 2.2 ENE 19 30 10 16 1014.7 1014.2 0.0
27/12:30am 21.7 20.8 18.1 80 2.3 ENE 20 28 11 15 1014.7 1014.2 0.0
27/12:00am 21.7 20.2 17.7 78 2.5 ENE 22 30 12 16 1014.8 1014.3 0.0
 
Date/Time
EDT
Temp
°C
App
Temp
°C
Dew
Point
°C
Rel
Hum
%
Delta-T
°C
Wind Press
QNH
hPa
Press
MSL
hPa
Rain since
9am
mm
Dir  Spd
km/h
Gust
km/h
Spd
kts
Gust
kts
26/11:30pm 21.9 20.7 17.5 76 2.7 ENE 20 28 11 15 1015.1 1014.6 0.0
26/11:00pm 21.6 20.4 17.6 78 2.5 ENE 20 30 11 16 1015.2 1014.7 0.0
26/10:30pm 21.6 20.6 17.6 78 2.5 ENE 19 26 10 14 1015.4 1014.9 0.0
26/10:00pm 21.8 21.3 17.8 78 2.5 ENE 17 22 9 12 1015.5 1015.0 0.0
26/09:30pm 22.1 21.3 18.1 78 2.5 ENE 19 26 10 14 1015.7 1015.2 0.0
26/09:00pm 22.3 21.6 18.3 78 2.5 ENE 19 30 10 16 1015.8 1015.3 0.0
26/08:30pm 22.3 21.4 18.1 77 2.6 ENE 20 30 11 16 1015.8 1015.3 0.0
26/08:00pm 22.2 21.2 18.0 77 2.6 ENE 20 28 11 15 1015.7 1015.2 0.0
26/07:30pm 22.1 22.5 18.1 78 2.5 E 13 22 7 12 1015.4 1014.9 0.0
26/07:00pm 21.4 20.8 16.6 74 2.9 NNE 15 24 8 13 1015.4 1014.9 0.0
26/06:30pm 22.2 22.3 18.4 79 2.4 ENE 15 22 8 12 1015.0 1014.5 0.0
26/06:00pm 22.6 22.0 17.5 73 3.2 E 17 26 9 14 1014.9 1014.4 0.0
26/05:30pm 22.9 22.3 17.6 72 3.3 E 17 28 9 15 1014.6 1014.1 0.0
26/05:00pm 23.0 22.1 17.7 72 3.3 ENE 19 26 10 14 1014.5 1014.0 0.0
26/04:30pm 23.3 21.8 17.7 71 3.5 ENE 22 28 12 15 1014.5 1014.0 0.0
26/04:00pm 23.7 22.8 17.7 69 3.8 ENE 19 30 10 16 1014.6 1014.1 0.0
26/03:30pm 23.8 22.3 17.8 69 3.8 ENE 22 32 12 17 1014.6 1014.1 0.0
26/03:00pm 23.9 22.7 17.6 68 3.9 ENE 20 30 11 16 1014.7 1014.2 0.0
26/02:30pm 24.1 23.2 18.3 70 3.7 ENE 20 28 11 15 1014.8 1014.3 0.0
26/02:00pm 24.9 23.2 18.1 66 4.3 ENE 24 33 13 18 1015.0 1014.5 0.0
26/01:30pm 24.5 22.2 17.7 66 4.3 ENE 26 35 14 19 1015.1 1014.6 0.0
26/01:00pm 25.8 23.7 18.0 62 4.9 ENE 26 35 14 19 1015.2 1014.7 0.0
26/12:30pm 25.7 23.2 18.1 63 4.8 ENE 28 43 15 23 1015.4 1014.9 0.0
26/12:00pm 25.7 24.6 18.6 65 4.5 ENE 22 35 12 19 1015.6 1015.1 0.0
26/11:30am 23.3 22.3 17.5 70 3.6 ENE 19 30 10 16 1015.8 1015.3 0.0
26/11:00am 24.6 23.4 17.6 65 4.4 ENE 20 32 11 17 1015.9 1015.4 0.0
26/10:30am 24.6 23.2 17.1 63 4.7 E 20 33 11 18 1015.9 1015.4 0.0
26/10:00am 24.5 23.4 17.2 63 4.5 ENE 19 32 10 17 1016.1 1015.6 0.0
26/09:30am 24.6 23.2 17.1 63 4.7 ENE 20 32 11 17 1016.2 1015.7 0.0
26/09:00am 23.9 22.0 16.7 64 4.4 ENE 22 30 12 16 1016.3 1015.8 0.0
26/08:30am 23.9 22.5 16.9 65 4.3 E 20 28 11 15 1016.3 1015.8 0.0
26/08:00am 23.2 21.8 17.0 68 3.8 E 20 30 11 16 1016.4 1015.9 0.0
26/07:30am 22.7 21.4 16.7 69 3.7 E 19 28 10 15 1016.4 1015.9 0.0
26/07:00am 22.9 21.4 16.2 66 4.1 E 19 30 10 16 1016.3 1015.8 0.0
26/06:30am 21.9 20.6 15.7 68 3.7 ENE 17 28 9 15 1016.0 1015.5 0.0
26/06:00am 21.2 20.8 16.2 73 3.0 E 13 17 7 9 1016.0 1015.5 0.0
26/05:30am 20.7 19.4 15.9 74 2.9 E 17 24 9 13 1015.8 1015.3 0.0
26/05:00am 20.6 20.1 15.8 74 2.9 E 13 19 7 10 1015.7 1015.2 0.0
26/04:30am 20.4 18.9 15.4 73 3.0 E 17 20 9 11 1015.6 1015.1 0.0
26/04:00am 20.8 19.5 15.8 73 3.0 E 17 22 9 12 1015.5 1015.0 0.0
26/03:30am 21.1 19.8 15.9 72 3.1 E 17 22 9 12 1015.6 1015.1 0.0
26/03:00am 21.0 19.0 15.5 71 3.3 ENE 20 30 11 16 1015.7 1015.2 0.0
26/02:30am 21.1 20.8 16.5 75 2.8 E 13 17 7 9 1016.0 1015.5 0.0
26/02:00am 20.9 20.5 16.1 74 2.9 ESE 13 19 7 10 1016.0 1015.5 0.0

Other formats

Comma delimited format used in spreadsheet applications
http://www.bom.gov.au/fwo/IDN60801/IDN60801.94996.axf

JavaScript Object Notation format (JSON) in row-major order
http://www.bom.gov.au/fwo/IDN60801/IDN60801.94996.json

Data quality

Most of these data are generated automatically and are frequently updated. Quality checks on data are not normally performed. It is possible for incorrect values to appear. Refer to information at About Latest Weather Observations and please check the disclaimer before using these data.